Time;durP1;ratioP1;P1;durP2;ratioP2;P2;SDS_P1;SDS_P2;PMS_P1;PMS_P2;Temp;Humidity;BMP_temperature;BMP_pressure;BME280_temperature;BME280_humidity;BME280_pressure;Samples;Min_cycle;Max_cycle;Signal;HPM_P1;HPM_P2
2023/03/09 00:01:46;;;;;;;16.77;8.40;;;;;;;3.15;79.71;98603.91;4981083;28;20138;-43
2023/03/09 00:04:15;;;;;;;16.23;8.77;;;;;;;3.10;79.46;98604.16;4972000;28;20043;-48
2023/03/09 00:06:43;;;;;;;18.15;9.43;;;;;;;3.06;79.62;98609.50;4972319;28;20047;-43
2023/03/09 00:09:12;;;;;;;20.33;9.55;;;;;;;3.02;79.61;98612.13;4972188;28;20489;-43
2023/03/09 00:11:47;;;;;;;19.10;9.65;;;;;;;2.95;80.16;98606.47;4972542;28;20481;-43
2023/03/09 00:14:16;;;;;;;21.88;9.73;;;;;;;2.91;80.15;98616.47;4972288;28;20038;-43
2023/03/09 00:16:43;;;;;;;25.98;10.35;;;;;;;2.88;80.60;98622.66;4971525;28;20058;-43
2023/03/09 00:19:09;;;;;;;17.67;8.13;;;;;;;2.86;80.29;98635.09;4972044;28;20086;-46
2023/03/09 00:21:36;;;;;;;22.45;8.35;;;;;;;2.81;80.55;98622.44;4971243;28;20077;-42
2023/03/09 00:24:24;;;;;;;11.27;7.07;;;;;;;2.76;80.43;98619.94;4971525;28;20046;-43
2023/03/09 00:26:56;;;;;;;12.30;6.72;;;;;;;2.75;80.32;98620.31;4972254;28;20534;-42
2023/03/09 00:29:24;;;;;;;13.65;7.05;;;;;;;2.75;80.38;98625.78;4966599;28;20043;-43
2023/03/09 00:31:52;;;;;;;8.30;4.97;;;;;;;2.69;80.82;98627.16;4947576;28;20102;-42
2023/03/09 00:34:20;;;;;;;11.43;5.20;;;;;;;2.65;81.04;98627.03;4971144;28;20081;-46
2023/03/09 00:36:46;;;;;;;11.52;5.88;;;;;;;2.62;81.14;98624.22;4971619;28;20397;-42
2023/03/09 00:39:15;;;;;;;11.60;6.53;;;;;;;2.58;81.10;98618.63;4971164;28;20061;-42
2023/03/09 00:41:42;;;;;;;14.32;6.13;;;;;;;2.56;81.35;98626.38;4971751;28;20053;-48
2023/03/09 00:44:10;;;;;;;12.40;7.80;;;;;;;2.55;81.46;98629.44;4972323;28;20046;-44
2023/03/09 00:46:37;;;;;;;13.90;7.78;;;;;;;2.58;81.40;98623.28;4971449;28;20054;-44
2023/03/09 00:49:06;;;;;;;12.85;6.65;;;;;;;2.60;81.55;98624.53;4971505;28;20085;-43
2023/03/09 00:51:36;;;;;;;14.55;7.72;;;;;;;2.57;81.46;98622.50;4971423;28;20055;-43
2023/03/09 00:54:03;;;;;;;16.98;7.57;;;;;;;2.57;81.59;98611.56;4971823;28;20070;-43
2023/03/09 00:56:30;;;;;;;15.75;6.82;;;;;;;2.55;82.08;98630.22;4973152;28;20046;-43
2023/03/09 00:58:58;;;;;;;15.57;8.48;;;;;;;2.52;82.13;98619.19;4971493;28;20137;-43
2023/03/09 01:01:25;;;;;;;13.00;7.72;;;;;;;2.52;81.93;98611.00;4971331;28;20062;-42
2023/03/09 01:03:53;;;;;;;13.18;7.38;;;;;;;2.50;82.42;98608.63;4971775;28;20445;-43
2023/03/09 01:06:23;;;;;;;17.27;8.68;;;;;;;2.47;82.44;98618.31;4971741;28;20058;-44
2023/03/09 01:08:50;;;;;;;19.35;10.27;;;;;;;2.47;81.94;98612.03;4971422;28;20049;-43
2023/03/09 01:11:17;;;;;;;23.63;9.05;;;;;;;2.49;82.37;98603.53;4971438;28;20051;-43
2023/03/09 01:13:44;;;;;;;16.33;8.18;;;;;;;2.47;82.42;98591.00;4971069;28;20043;-43
2023/03/09 01:16:14;;;;;;;16.13;9.25;;;;;;;2.49;82.83;98590.63;4971423;28;20062;-49
2023/03/09 01:18:41;;;;;;;14.32;8.18;;;;;;;2.49;82.39;98587.91;4971102;28;20565;-43
2023/03/09 01:21:08;;;;;;;15.20;8.32;;;;;;;2.47;82.63;98584.72;4970893;28;20034;-43
2023/03/09 01:23:39;;;;;;;17.95;7.78;;;;;;;2.45;82.59;98587.00;4970971;28;20054;-43
2023/03/09 01:26:07;;;;;;;17.70;8.13;;;;;;;2.46;82.80;98580.44;4971273;28;20465;-43
2023/03/09 01:28:34;;;;;;;23.05;7.90;;;;;;;2.45;82.78;98584.28;4970146;28;20109;-44
2023/03/09 01:31:06;;;;;;;21.15;9.20;;;;;;;2.46;82.87;98588.63;4971117;28;20047;-43
2023/03/09 01:33:33;;;;;;;15.27;7.63;;;;;;;2.50;82.58;98605.09;4970703;28;20101;-43
2023/03/09 01:36:04;;;;;;;17.10;8.88;;;;;;;2.53;83.15;98602.47;4970927;28;20617;-44
2023/03/09 01:38:31;;;;;;;15.35;7.90;;;;;;;2.56;83.34;98599.06;4970732;28;20074;-43
2023/03/09 01:40:57;;;;;;;16.77;7.45;;;;;;;2.58;82.99;98591.31;4970660;28;20046;-43
2023/03/09 01:43:34;;;;;;;15.52;8.25;;;;;;;2.62;83.26;98596.88;4970228;28;20125;-44
2023/03/09 01:46:24;;;;;;;24.23;7.82;;;;;;;2.66;83.31;98593.13;4970322;28;20065;-47
2023/03/09 01:49:06;;;;;;;15.95;7.97;;;;;;;2.69;82.95;98591.63;4970715;28;20086;-43
2023/03/09 01:51:57;;;;;;;13.43;7.50;;;;;;;2.71;82.65;98601.06;4970684;28;20054;-43
2023/03/09 01:54:39;;;;;;;12.25;7.25;;;;;;;2.74;82.90;98594.13;4970341;28;20046;-42
2023/03/09 01:57:36;;;;;;;16.52;7.78;;;;;;;2.76;83.16;98580.91;4972952;28;20057;-42
2023/03/09 02:00:12;;;;;;;12.73;7.60;;;;;;;2.76;83.12;98581.69;4970366;28;20042;-42
2023/03/09 02:02:42;;;;;;;11.38;7.00;;;;;;;2.78;82.78;98590.34;4969722;28;20110;-42
2023/03/09 02:05:19;;;;;;;9.82;6.28;;;;;;;2.80;82.67;98590.81;4970329;28;20133;-42
2023/03/09 02:07:50;;;;;;;13.63;6.60;;;;;;;2.81;82.93;98595.13;4970079;28;20125;-43
2023/03/09 02:10:32;;;;;;;11.35;6.43;;;;;;;2.80;82.62;98593.53;4970259;28;20047;-42
2023/03/09 02:13:03;;;;;;;9.93;6.53;;;;;;;2.81;82.42;98589.66;4969892;28;20515;-44
2023/03/09 02:15:29;;;;;;;9.15;5.57;;;;;;;2.82;82.71;98580.31;4970051;28;20050;-43
2023/03/09 02:17:56;;;;;;;11.52;5.55;;;;;;;2.83;82.73;98581.91;4968692;28;20051;-42
2023/03/09 02:20:39;;;;;;;9.75;6.28;;;;;;;2.84;82.72;98582.69;4969189;28;20501;-43
2023/03/09 02:23:08;;;;;;;;;;;;;;;2.84;82.48;98578.03;4958276;28;20054;-46
2023/03/09 02:25:48;;;;;;;10.82;5.38;;;;;;;2.82;82.62;98572.13;4969878;28;19934;-43
2023/03/09 02:28:15;;;;;;;13.32;6.43;;;;;;;2.83;82.43;98570.19;4970204;28;20053;-47
2023/03/09 02:30:45;;;;;;;10.15;4.90;;;;;;;2.82;82.41;98569.38;4970079;28;20070;-42
2023/03/09 02:33:25;;;;;;;10.43;5.47;;;;;;;2.83;nan;98559.25;4969790;28;20082;-45
2023/03/09 02:35:57;;;;;;;10.23;6.80;;;;;;;2.85;82.28;98557.78;4969912;28;20061;-42
2023/03/09 02:38:25;;;;;;;9.23;5.40;;;;;;;2.83;82.39;98551.84;4969062;28;20145;-45
2023/03/09 02:40:56;;;;;;;10.07;5.85;;;;;;;2.83;82.13;98556.53;4957384;28;20051;-42
2023/03/09 02:43:30;;;;;;;9.32;5.93;;;;;;;2.85;82.37;98552.31;4969508;28;20065;-43
2023/03/09 02:45:56;;;;;;;10.40;6.35;;;;;;;2.87;82.04;98555.47;4970133;28;20053;-43
2023/03/09 02:48:23;;;;;;;12.30;6.40;;;;;;;2.87;82.29;98554.69;4969370;28;20050;-43
2023/03/09 02:50:50;;;;;;;10.82;6.63;;;;;;;2.88;82.16;98557.09;4969765;28;20059;-43
2023/03/09 02:53:17;;;;;;;11.88;7.70;;;;;;;2.89;81.98;98561.38;4969716;28;20385;-43
2023/03/09 02:55:43;;;;;;;11.43;6.45;;;;;;;2.91;82.00;98561.81;4970497;28;20054;-42
2023/03/09 02:58:10;;;;;;;10.38;6.25;;;;;;;2.89;82.03;98553.19;4975625;28;20069;-43
2023/03/09 03:00:37;;;;;;;14.80;5.90;;;;;;;2.91;81.84;98558.31;5010657;23;20036;-46
2023/03/09 03:03:04;;;;;;;12.95;6.88;;;;;;;2.92;81.88;98554.44;5010966;28;20423;-50
2023/03/09 03:05:30;;;;;;;14.82;6.47;;;;;;;2.91;82.05;98553.63;5013044;28;20391;-43
2023/03/09 03:07:58;;;;;;;12.68;6.78;;;;;;;2.91;81.87;98539.97;5012655;28;20403;-43
2023/03/09 03:10:25;;;;;;;10.55;6.45;;;;;;;2.92;82.00;98541.56;5012205;28;20047;-43
2023/03/09 03:12:51;;;;;;;16.23;7.00;;;;;;;2.93;81.80;98531.44;5012395;28;20049;-43
2023/03/09 03:15:18;;;;;;;9.00;5.97;;;;;;;2.95;81.89;98540.88;5012479;28;20526;-48
2023/03/09 03:17:44;;;;;;;11.70;6.10;;;;;;;2.95;81.62;98535.41;5011948;28;20038;-43
2023/03/09 03:20:12;;;;;;;16.33;7.50;;;;;;;2.97;81.52;98529.56;5027358;28;20514;-43
2023/03/09 03:22:39;;;;;;;8.10;5.60;;;;;;;2.98;81.64;98536.66;5027036;28;20045;-43
2023/03/09 03:25:07;;;;;;;10.80;6.43;;;;;;;2.96;81.78;98533.47;5012077;28;20522;-43
2023/03/09 03:27:33;;;;;;;10.30;5.93;;;;;;;2.95;81.73;98535.41;5011937;28;20081;-48
2023/03/09 03:30:00;;;;;;;12.45;6.18;;;;;;;2.95;81.68;98534.59;5012112;28;20495;-43
2023/03/09 03:32:27;;;;;;;8.98;6.00;;;;;;;2.93;81.85;98534.97;5011779;28;20030;-43
2023/03/09 03:34:54;;;;;;;9.00;5.70;;;;;;;2.95;81.67;98538.13;5027434;28;20380;-45
2023/03/09 03:37:21;;;;;;;13.98;6.25;;;;;;;2.92;81.48;98540.75;5012085;28;20400;-43
2023/03/09 03:39:48;;;;;;;14.40;5.15;;;;;;;2.89;81.39;98531.31;5011851;28;20053;-43
2023/03/09 03:42:15;;;;;;;9.38;5.95;;;;;;;2.89;81.54;98527.78;5011647;28;20037;-43
2023/03/09 03:44:41;;;;;;;10.73;6.85;;;;;;;2.88;81.69;98531.69;5011322;28;20056;-46
2023/03/09 03:47:08;;;;;;;14.60;6.50;;;;;;;2.87;81.47;98530.88;5011837;28;20050;-44
2023/03/09 03:49:35;;;;;;;10.60;6.32;;;;;;;2.86;81.86;98523.81;5011911;28;20046;-43
2023/03/09 03:52:03;;;;;;;13.77;6.35;;;;;;;2.87;81.69;98524.63;5011577;28;20053;-43
2023/03/09 03:54:29;;;;;;;11.07;6.43;;;;;;;2.87;81.45;98514.50;5011457;28;20415;-43
2023/03/09 03:56:56;;;;;;;11.98;6.95;;;;;;;2.86;81.66;98514.84;5011743;28;20080;-43
2023/03/09 03:59:23;;;;;;;11.10;6.47;;;;;;;2.86;81.83;98512.88;5011267;28;20056;-44
2023/03/09 04:01:50;;;;;;;10.30;6.50;;;;;;;2.87;81.59;98511.75;5020772;28;20499;-43
2023/03/09 04:04:17;;;;;;;16.13;8.07;;;;;;;2.87;81.46;98516.41;5029956;28;20053;-43
2023/03/09 04:06:44;;;;;;;12.13;7.82;;;;;;;2.86;81.59;98509.38;5030970;28;20578;-51
2023/03/09 04:09:11;;;;;;;10.13;6.30;;;;;;;2.87;81.54;98506.28;5031719;28;20045;-43
2023/03/09 04:11:37;;;;;;;10.50;6.28;;;;;;;2.85;81.78;98505.84;5030958;28;20064;-43
2023/03/09 04:14:04;;;;;;;12.05;7.85;;;;;;;2.86;81.58;98515.63;5029718;28;20049;-44
2023/03/09 04:16:34;;;;;;;13.65;6.90;;;;;;;2.84;81.84;98500.72;5030750;28;20115;-43
2023/03/09 04:19:00;;;;;;;11.70;7.13;;;;;;;2.82;81.91;98498.34;5030845;28;20495;-42
2023/03/09 04:21:27;;;;;;;9.75;6.57;;;;;;;2.82;81.64;98498.34;5049357;28;20038;-42
2023/03/09 04:23:53;;;;;;;13.40;7.57;;;;;;;2.79;82.04;98496.31;5031095;28;20060;-42
2023/03/09 04:26:20;;;;;;;12.40;7.82;;;;;;;2.77;81.67;98500.53;5031165;28;20049;-43
2023/03/09 04:28:47;;;;;;;15.45;7.88;;;;;;;2.74;82.14;98502.03;5030464;28;20045;-43
2023/03/09 04:31:13;;;;;;;11.43;7.20;;;;;;;2.73;82.36;98492.22;5030651;28;20045;-43
2023/03/09 04:33:43;;;;;;;15.30;7.57;;;;;;;2.71;81.87;98494.53;5030572;28;20046;-44
2023/03/09 04:36:11;;;;;;;15.90;7.40;;;;;;;2.68;82.34;98480.75;5030344;28;20045;-43
2023/03/09 04:38:38;;;;;;;14.82;7.35;;;;;;;2.63;82.46;98483.72;5030717;28;20041;-44
2023/03/09 04:41:04;;;;;;;10.32;6.53;;;;;;;2.63;82.37;98490.00;5030784;28;20041;-43
2023/03/09 04:43:32;;;;;;;12.98;7.00;;;;;;;2.62;82.45;98487.63;5030367;28;20470;-43
2023/03/09 04:45:59;;;;;;;11.48;7.20;;;;;;;2.60;82.85;98489.88;5030332;28;20498;-43
2023/03/09 04:48:25;;;;;;;11.20;7.25;;;;;;;2.60;82.59;98484.44;5030314;28;20055;-50
2023/03/09 04:50:54;;;;;;;16.02;9.60;;;;;;;2.57;82.88;98469.53;5030615;28;20083;-42
2023/03/09 04:53:20;;;;;;;15.55;7.18;;;;;;;2.56;82.88;98470.69;5030058;28;20053;-45
2023/03/09 04:55:47;;;;;;;14.18;9.10;;;;;;;2.54;82.84;98459.31;5030654;28;20049;-43
2023/03/09 04:58:14;;;;;;;13.02;7.95;;;;;;;2.56;83.23;98462.50;5029485;28;20379;-43
2023/03/09 05:00:40;;;;;;;13.63;8.18;;;;;;;2.55;83.07;98460.91;5022105;28;20411;-43
2023/03/09 05:03:07;;;;;;;12.63;8.57;;;;;;;2.55;82.98;98460.09;5062121;28;20041;-49
2023/03/09 05:05:34;;;;;;;13.98;7.90;;;;;;;2.55;83.15;98465.56;5030305;28;20182;-48
2023/03/09 05:08:00;;;;;;;11.07;7.60;;;;;;;2.53;83.43;98446.81;5029794;28;20045;-43
2023/03/09 05:10:27;;;;;;;14.23;7.68;;;;;;;2.55;83.07;98454.63;5029690;28;20049;-42
2023/03/09 05:12:54;;;;;;;17.25;8.65;;;;;;;2.56;83.51;98451.56;5030066;28;20053;-43
2023/03/09 05:15:21;;;;;;;12.52;8.70;;;;;;;2.57;83.35;98458.59;5029959;28;20180;-43
2023/03/09 05:17:47;;;;;;;20.65;8.23;;;;;;;2.55;83.23;98458.16;5029799;28;20053;-46
2023/03/09 05:20:14;;;;;;;18.10;8.23;;;;;;;2.57;83.33;98455.88;5061103;28;20063;-43
2023/03/09 05:22:41;;;;;;;19.38;8.75;;;;;;;2.58;83.54;98460.22;5029724;28;20041;-43
2023/03/09 05:25:08;;;;;;;13.90;8.07;;;;;;;2.59;83.74;98466.47;5029820;28;20049;-43
2023/03/09 05:27:35;;;;;;;15.15;9.15;;;;;;;2.56;83.61;98467.97;5029480;28;20056;-43
2023/03/09 05:30:02;;;;;;;17.02;8.63;;;;;;;2.52;83.95;98461.59;5029858;28;20049;-43
2023/03/09 05:32:29;;;;;;;15.85;9.40;;;;;;;2.52;83.90;98461.59;5029816;28;20044;-42
2023/03/09 05:34:57;;;;;;;16.13;9.15;;;;;;;2.52;83.89;98466.25;5029691;28;20739;-45
2023/03/09 05:37:24;;;;;;;16.85;10.05;;;;;;;2.49;84.24;98462.28;5029483;28;20041;-43
2023/03/09 05:39:50;;;;;;;16.73;10.27;;;;;;;2.45;84.20;98462.19;5029766;28;20049;-43
2023/03/09 05:42:17;;;;;;;16.45;9.00;;;;;;;2.42;84.14;98459.34;5029868;28;20380;-43
2023/03/09 05:44:44;;;;;;;19.02;10.13;;;;;;;2.39;84.35;98454.59;5029139;28;20049;-44
2023/03/09 05:47:11;;;;;;;14.57;8.63;;;;;;;2.38;84.47;98461.22;5029641;28;20085;-42
2023/03/09 05:49:39;;;;;;;20.92;10.98;;;;;;;2.36;84.50;98458.00;5029985;28;20053;-44
2023/03/09 05:52:06;;;;;;;18.80;11.38;;;;;;;2.35;84.69;98454.50;5029820;28;20045;-42
2023/03/09 05:54:32;;;;;;;17.73;10.40;;;;;;;2.36;84.75;98458.00;5029353;28;20052;-42
2023/03/09 05:57:00;;;;;;;20.85;10.15;;;;;;;2.36;84.96;98458.00;5029192;28;20510;-43
2023/03/09 05:59:27;;;;;;;18.33;9.90;;;;;;;2.35;84.99;98459.16;5028992;28;20056;-47
2023/03/09 06:01:53;;;;;;;19.55;10.57;;;;;;;2.35;85.10;98451.78;5028874;28;20119;-43
2023/03/09 06:04:20;;;;;;;17.63;9.68;;;;;;;2.36;85.28;98449.81;5028977;28;20046;-44
2023/03/09 06:06:47;;;;;;;19.20;9.63;;;;;;;2.38;85.58;98447.56;5028822;28;20052;-43
2023/03/09 06:09:15;;;;;;;22.95;11.52;;;;;;;2.37;85.63;98443.22;5029148;28;20050;-43
2023/03/09 06:11:41;;;;;;;15.95;9.38;;;;;;;2.37;85.47;98449.47;5028010;28;20487;-43
2023/03/09 06:14:09;;;;;;;17.52;9.25;;;;;;;2.37;85.52;98437.75;5028729;28;20061;-43
2023/03/09 06:16:36;;;;;;;19.80;9.35;;;;;;;2.39;85.88;98440.94;5028852;28;20045;-47
2023/03/09 06:19:03;;;;;;;16.25;9.57;;;;;;;2.39;85.73;98444.47;5028469;28;20134;-42
2023/03/09 06:21:30;;;;;;;21.15;8.93;;;;;;;2.40;85.85;98445.25;5029357;28;20499;-43
2023/03/09 06:23:57;;;;;;;16.35;8.55;;;;;;;2.36;85.81;98444.34;5028741;28;20402;-42
2023/03/09 06:26:25;;;;;;;21.65;10.05;;;;;;;2.31;86.31;98439.13;5028855;28;20037;-43
2023/03/09 06:28:51;;;;;;;14.55;7.35;;;;;;;2.29;86.33;98441.44;5028600;28;20051;-45
2023/03/09 06:31:18;;;;;;;15.40;8.88;;;;;;;2.23;86.38;98437.34;5026800;28;20088;-43
2023/03/09 06:33:46;;;;;;;12.02;7.90;;;;;;;2.21;86.44;98443.16;5028389;28;20491;-42
2023/03/09 06:36:16;;;;;;;15.00;7.68;;;;;;;2.17;86.78;98434.06;5028321;28;20404;-43
2023/03/09 06:38:43;;;;;;;13.68;8.45;;;;;;;2.15;86.66;98436.34;5028528;28;20043;-43
2023/03/09 06:41:12;;;;;;;14.07;8.77;;;;;;;2.14;86.59;98423.88;5028574;28;20107;-43
2023/03/09 06:43:40;;;;;;;17.23;8.25;;;;;;;2.15;86.86;98439.09;5028642;28;20079;-42
2023/03/09 06:46:10;;;;;;;12.50;7.85;;;;;;;2.15;86.88;98435.56;5027593;28;20080;-43
2023/03/09 06:48:40;;;;;;;14.40;8.52;;;;;;;2.15;86.98;98441.00;5028244;28;20394;-42
2023/03/09 06:51:06;;;;;;;14.73;8.05;;;;;;;2.15;86.76;98436.34;5028579;28;20478;-42
2023/03/09 06:53:33;;;;;;;14.75;7.28;;;;;;;2.14;87.03;98436.72;5028443;28;20410;-42
2023/03/09 06:56:03;;;;;;;14.80;8.35;;;;;;;2.13;87.26;98433.19;5028633;28;20049;-42
2023/03/09 06:58:31;;;;;;;16.30;8.35;;;;;;;2.15;87.43;98425.44;5028412;28;20132;-42
2023/03/09 07:00:57;;;;;;;13.52;7.22;;;;;;;2.13;87.37;98426.91;5027781;28;20523;-45
2023/03/09 07:03:24;;;;;;;20.73;9.98;;;;;;;2.14;87.58;98423.06;5028005;28;20033;-42
2023/03/09 07:05:51;;;;;;;15.05;8.82;;;;;;;2.17;87.51;98427.84;5028659;28;20045;-42
2023/03/09 07:08:18;;;;;;;13.50;6.55;;;;;;;2.19;87.56;98428.28;5028214;28;20038;-48
2023/03/09 07:10:45;;;;;;;13.10;6.43;;;;;;;2.15;87.46;98424.63;5028002;28;20518;-42
2023/03/09 07:13:15;;;;;;;11.40;6.93;;;;;;;2.13;87.64;98413.28;5028219;28;20044;-45
2023/03/09 07:15:42;;;;;;;10.43;6.60;;;;;;;2.13;87.68;98416.00;5028569;28;20056;-42
2023/03/09 07:18:09;;;;;;;12.95;7.05;;;;;;;2.13;87.86;98407.81;5028061;28;20096;-46
2023/03/09 07:20:40;;;;;;;12.98;6.30;;;;;;;2.14;88.15;98412.16;5028234;28;20069;-45
2023/03/09 07:23:09;;;;;;;15.77;7.50;;;;;;;2.15;88.00;98416.44;5028331;28;20137;-49
2023/03/09 07:25:37;;;;;;;11.73;7.03;;;;;;;2.17;88.12;98414.97;5028172;28;20060;-42
2023/03/09 07:28:06;;;;;;;8.77;6.40;;;;;;;2.16;88.36;98410.66;5028412;28;20538;-42
2023/03/09 07:30:37;;;;;;;16.17;5.82;;;;;;;2.20;88.37;98410.75;5028345;28;20151;-42
2023/03/09 07:33:04;;;;;;;11.77;6.75;;;;;;;2.21;88.39;98412.34;5027991;28;20046;-42
2023/03/09 07:35:31;;;;;;;16.35;6.78;;;;;;;2.22;88.73;98413.94;5028182;28;20042;-42
2023/03/09 07:37:58;;;;;;;12.52;6.43;;;;;;;2.21;88.62;98391.31;5027902;28;20053;-43
2023/03/09 07:40:24;;;;;;;9.90;6.30;;;;;;;2.21;88.71;98407.69;5027760;28;20179;-43
2023/03/09 07:42:54;;;;;;;11.15;6.47;;;;;;;2.22;88.79;98409.28;5030410;28;20499;-45
2023/03/09 07:45:22;;;;;;;8.07;5.50;;;;;;;2.24;88.73;98403.47;5031532;28;20144;-43
2023/03/09 07:47:49;;;;;;;11.88;6.30;;;;;;;2.23;88.90;98404.59;5031706;28;20510;-42
2023/03/09 07:50:18;;;;;;;8.60;5.40;;;;;;;2.23;88.91;98410.06;5031296;28;20637;-43
2023/03/09 07:52:44;;;;;;;10.73;5.80;;;;;;;2.25;88.87;98402.34;5031088;28;20570;-43
2023/03/09 07:55:12;;;;;;;9.18;5.30;;;;;;;2.27;89.30;98395.38;5031523;28;20060;-42
2023/03/09 07:57:41;;;;;;;9.68;4.63;;;;;;;2.30;89.07;98399.34;5031561;28;20045;-43
2023/03/09 08:00:12;;;;;;;10.43;5.00;;;;;;;2.30;89.49;98399.34;5030809;28;20128;-43
2023/03/09 08:02:40;;;;;;;8.63;4.73;;;;;;;2.31;89.14;98406.38;5023211;28;20062;-43
2023/03/09 08:05:09;;;;;;;11.55;5.13;;;;;;;2.31;89.42;98407.19;5029899;28;20069;-43
2023/03/09 08:07:36;;;;;;;10.18;4.82;;;;;;;2.31;89.59;98409.91;5031498;28;20045;-42
2023/03/09 08:10:03;;;;;;;6.65;4.53;;;;;;;2.32;89.53;98418.91;5029989;28;20041;-42
2023/03/09 08:12:30;;;;;;;10.77;4.68;;;;;;;2.31;89.32;98411.84;5028637;28;20076;-43
2023/03/09 08:14:57;;;;;;;10.20;4.95;;;;;;;2.30;89.36;98418.47;5027602;28;20571;-42
2023/03/09 08:17:24;;;;;;;10.60;5.10;;;;;;;2.30;89.70;98418.47;5030956;28;20428;-46
2023/03/09 08:19:50;;;;;;;9.60;3.85;;;;;;;2.27;89.82;98409.03;5025302;28;20045;-42
2023/03/09 08:22:17;;;;;;;7.30;4.50;;;;;;;2.26;90.04;98409.34;5030584;28;20111;-46
2023/03/09 08:24:44;;;;;;;9.32;4.72;;;;;;;2.25;89.92;98405.84;5030879;28;20059;-42
2023/03/09 08:27:11;;;;;;;9.20;4.90;;;;;;;2.26;90.45;98412.09;5030467;28;20053;-43
2023/03/09 08:29:38;;;;;;;6.60;4.65;;;;;;;2.26;90.04;98412.09;5029173;28;20495;-42
2023/03/09 08:32:06;;;;;;;10.23;4.50;;;;;;;2.25;90.16;98414.03;5030802;28;20057;-42
2023/03/09 08:34:33;;;;;;;9.27;4.97;;;;;;;2.24;89.98;98412.44;5030412;28;20033;-42
2023/03/09 08:37:00;;;;;;;9.82;4.03;;;;;;;2.26;90.23;98403.91;5031202;28;20391;-42
2023/03/09 08:39:27;;;;;;;4.10;2.65;;;;;;;2.23;90.31;98404.59;5030431;28;20052;-42
2023/03/09 08:41:54;;;;;;;6.07;3.80;;;;;;;2.20;90.23;98405.28;5030421;28;20045;-44
2023/03/09 08:44:20;;;;;;;6.50;3.40;;;;;;;2.20;90.79;98397.09;5030747;28;20045;-42
2023/03/09 08:46:48;;;;;;;7.50;2.63;;;;;;;2.17;90.71;98395.84;5030598;28;20037;-42
2023/03/09 08:49:15;;;;;;;6.05;3.35;;;;;;;2.15;90.79;98394.63;5030572;28;20239;-44
2023/03/09 08:51:41;;;;;;;5.45;3.53;;;;;;;2.12;90.96;98400.78;5030595;28;20160;-42
2023/03/09 08:54:08;;;;;;;10.02;3.78;;;;;;;2.12;90.95;98384.41;5029926;28;20501;-44
2023/03/09 08:56:35;;;;;;;5.18;2.60;;;;;;;2.12;90.78;98384.41;5030403;28;20053;-42
2023/03/09 08:59:01;;;;;;;4.78;3.33;;;;;;;2.08;90.77;98391.69;5030282;28;20132;-43
2023/03/09 09:01:28;;;;;;;7.47;3.90;;;;;;;2.07;90.98;98379.97;5030011;28;20061;-42
2023/03/09 09:03:55;;;;;;;9.57;3.85;;;;;;;2.09;91.34;98385.09;5030268;28;20085;-42
2023/03/09 09:06:21;;;;;;;6.32;3.85;;;;;;;2.09;91.04;98376.91;5030032;28;20045;-42
2023/03/09 09:08:48;;;;;;;5.03;3.30;;;;;;;2.10;91.21;98379.28;5029633;28;20048;-42
2023/03/09 09:11:17;;;;;;;5.28;3.45;;;;;;;2.10;91.31;98375.75;5030451;28;20124;-42
2023/03/09 09:13:43;;;;;;;7.03;2.67;;;;;;;2.10;91.39;98375.75;5034324;28;20055;-42
2023/03/09 09:16:12;;;;;;;8.23;4.07;;;;;;;2.10;91.36;98370.28;5031598;28;20099;-42
2023/03/09 09:18:40;;;;;;;9.20;3.80;;;;;;;2.12;91.46;98366.06;5030140;28;20041;-42
2023/03/09 09:21:15;;;;;;;5.57;3.55;;;;;;;2.15;91.32;98370.84;5029799;28;20394;-42
2023/03/09 09:23:44;;;;;;;7.75;3.97;;;;;;;2.22;91.46;98375.72;5029756;28;20535;-42
2023/03/09 09:26:15;;;;;;;5.68;3.67;;;;;;;2.22;91.74;98384.72;5029429;28;20094;-42
2023/03/09 09:28:44;;;;;;;9.43;2.97;;;;;;;2.24;91.67;98376.16;5029904;28;20060;-42
2023/03/09 09:31:16;;;;;;;6.80;3.75;;;;;;;2.25;92.04;98367.63;5029637;28;20069;-42
2023/03/09 09:33:43;;;;;;;7.30;3.28;;;;;;;2.27;92.13;98364.56;5029331;28;20045;-42
2023/03/09 09:36:16;;;;;;;4.28;2.60;;;;;;;2.27;92.00;98364.56;5029579;28;20520;-42
2023/03/09 09:38:43;;;;;;;5.55;2.58;;;;;;;2.26;92.15;98355.56;5029373;28;20487;-45
2023/03/09 09:41:18;;;;;;;6.38;3.17;;;;;;;2.25;91.89;98353.19;5029596;28;20455;-42
2023/03/09 09:43:51;;;;;;;4.20;2.97;;;;;;;2.29;92.25;98354.06;5028733;28;20045;-42
2023/03/09 09:46:21;;;;;;;3.50;2.67;;;;;;;2.28;92.32;98347.00;5029144;28;20041;-42
2023/03/09 09:48:49;;;;;;;6.43;2.80;;;;;;;2.32;92.22;98351.44;5028905;28;20065;-42
2023/03/09 09:51:34;;;;;;;6.10;2.90;;;;;;;2.38;92.41;98352.00;5029208;28;20045;-42
2023/03/09 09:54:23;;;;;;;4.22;2.38;;;;;;;2.44;92.45;98347.84;5017542;28;20128;-47
2023/03/09 09:56:55;;;;;;;3.80;2.70;;;;;;;2.48;92.35;98340.56;5028974;28;20513;-46
2023/03/09 09:59:50;;;;;;;5.05;2.60;;;;;;;2.47;92.33;98337.03;5029054;28;20468;-46
2023/03/09 10:02:48;;;;;;;3.25;2.00;;;;;;;2.46;92.46;98326.47;5017832;28;20054;-45
2023/03/09 10:05:39;;;;;;;3.25;2.30;;;;;;;2.46;92.67;98323.72;5029197;28;20396;-42
2023/03/09 10:08:31;;;;;;;3.17;2.15;;;;;;;2.46;92.59;98327.22;5028681;28;20427;-42
2023/03/09 10:11:11;;;;;;;8.05;2.55;;;;;;;2.51;92.89;98318.00;5027611;28;20045;-42
2023/03/09 10:13:42;;;;;;;5.75;2.53;;;;;;;2.53;92.79;98321.16;5032695;28;20154;-42
2023/03/09 10:16:21;;;;;;;6.03;2.35;;;;;;;2.57;92.61;98318.53;5032002;28;20137;-48
2023/03/09 10:18:54;;;;;;;5.25;2.30;;;;;;;2.59;92.82;98313.50;5029299;28;20061;-42
2023/03/09 10:21:47;;;;;;;5.60;2.28;;;;;;;2.63;92.71;98315.19;5028690;28;20042;-43
2023/03/09 10:24:22;;;;;;;5.47;2.10;;;;;;;2.66;93.01;98314.47;5028525;28;20051;-45
2023/03/09 10:26:57;;;;;;;2.13;1.60;;;;;;;2.67;92.94;98318.81;5028938;28;20045;-42
2023/03/09 10:29:39;;;;;;;7.15;1.95;;;;;;;2.67;92.89;98310.63;5027554;28;20133;-42
2023/03/09 10:32:15;;;;;;;9.40;1.80;;;;;;;2.69;92.88;98316.50;5028833;28;20047;-42
2023/03/09 10:34:58;;;;;;;2.67;1.45;;;;;;;2.73;93.20;98314.66;5028483;28;20045;-45
2023/03/09 10:37:31;;;;;;;7.35;2.78;;;;;;;2.74;93.29;98310.78;5027435;28;20053;-42
2023/03/09 10:40:02;;;;;;;4.93;3.42;;;;;;;2.81;93.20;98310.94;5028442;28;20068;-44
2023/03/09 10:42:36;;;;;;;7.53;3.05;;;;;;;2.85;93.18;98311.84;5016402;28;20495;-42
2023/03/09 10:45:12;;;;;;;6.68;2.40;;;;;;;2.87;93.25;98300.56;5027309;28;20054;-42
2023/03/09 10:47:59;;;;;;;6.13;2.67;;;;;;;2.80;93.37;98295.72;5028401;28;20055;-42
2023/03/09 10:50:30;;;;;;;12.68;2.60;;;;;;;2.78;93.50;98289.78;5028102;28;20069;-42
2023/03/09 10:52:57;;;;;;;8.43;3.33;;;;;;;2.78;93.29;98291.75;5028343;28;20051;-42
2023/03/09 10:55:31;;;;;;;4.38;2.60;;;;;;;2.82;93.70;98298.09;5028010;28;20033;-42
2023/03/09 10:58:13;;;;;;;4.65;2.50;;;;;;;2.81;93.77;98289.09;5028166;28;20053;-42
2023/03/09 11:01:11;;;;;;;8.88;2.88;;;;;;;2.79;93.88;98283.19;5028340;28;20499;-42
2023/03/09 11:03:41;;;;;;;5.03;2.90;;;;;;;2.77;93.33;98280.03;5019092;28;20072;-42
2023/03/09 11:06:21;;;;;;;5.72;2.38;;;;;;;2.75;93.96;98265.94;5027794;28;20045;-42
2023/03/09 11:09:17;;;;;;;7.00;2.20;;;;;;;2.78;94.06;98261.72;5017340;28;20065;-44
2023/03/09 11:11:48;;;;;;;3.17;1.52;;;;;;;2.80;93.99;98268.41;5027447;28;20384;-45
2023/03/09 11:14:29;;;;;;;9.00;2.25;;;;;;;2.82;93.90;98266.09;5035771;28;20518;-44
2023/03/09 11:16:59;;;;;;;5.78;1.98;;;;;;;2.82;93.98;98268.84;5029619;28;20100;-43
2023/03/09 11:19:27;;;;;;;2.63;1.70;;;;;;;2.88;93.77;98261.97;5032246;28;20050;-42
2023/03/09 11:21:57;;;;;;;5.70;1.90;;;;;;;2.92;94.02;98249.16;5031952;28;20045;-42
2023/03/09 11:24:32;;;;;;;4.35;1.77;;;;;;;2.96;93.76;98246.50;5031596;28;20045;-42
2023/03/09 11:27:17;;;;;;;7.53;2.03;;;;;;;2.92;93.95;98246.41;5031965;28;20136;-43
2023/03/09 11:29:56;;;;;;;5.90;1.80;;;;;;;2.94;94.01;98248.78;5031515;28;20045;-43
2023/03/09 11:32:23;;;;;;;5.63;2.30;;;;;;;2.91;94.19;98236.63;5031684;28;20128;-45
2023/03/09 11:35:04;;;;;;;3.70;2.40;;;;;;;2.98;94.22;98245.00;5031826;28;20038;-42
2023/03/09 11:37:39;;;;;;;6.25;2.35;;;;;;;3.05;94.32;98233.44;5031576;28;20518;-42
2023/03/09 11:40:29;;;;;;;4.18;1.67;;;;;;;3.10;94.02;98235.13;5030314;28;20052;-43
2023/03/09 11:43:17;;;;;;;3.63;1.90;;;;;;;3.16;93.97;98215.31;5021972;28;20099;-46
2023/03/09 11:45:44;;;;;;;8.73;2.30;;;;;;;3.21;93.89;98206.84;5031706;28;20050;-42
2023/03/09 11:48:40;;;;;;;5.18;2.53;;;;;;;3.26;93.95;98206.56;5031917;28;20045;-45
2023/03/09 11:51:16;;;;;;;8.00;2.70;;;;;;;3.31;94.25;98219.16;5022707;28;20053;-42